sensor_id;sensor_type;location;lat;lon;timestamp;temperature;humidity
70928;SHT31;58587;53.034;18.576;2022-08-23T07:09:04;21.00;84.58
70928;SHT31;58587;53.034;18.576;2022-08-23T07:11:30;21.05;84.53
70928;SHT31;58587;53.034;18.576;2022-08-23T07:14:01;21.08;84.47
70928;SHT31;58587;53.034;18.576;2022-08-23T07:16:35;21.12;84.24
70928;SHT31;58587;53.034;18.576;2022-08-23T07:19:02;21.16;84.30
70928;SHT31;58587;53.034;18.576;2022-08-23T07:21:27;21.22;84.23
70928;SHT31;58587;53.034;18.576;2022-08-23T07:23:53;21.26;84.30
70928;SHT31;58587;53.034;18.576;2022-08-23T07:26:19;21.29;84.12
70928;SHT31;58587;53.034;18.576;2022-08-23T07:28:45;21.32;83.79
70928;SHT31;58587;53.034;18.576;2022-08-23T07:31:15;21.39;84.03
70928;SHT31;58587;53.034;18.576;2022-08-23T07:33:42;21.39;83.70
70928;SHT31;58587;53.034;18.576;2022-08-23T07:36:08;21.39;83.38
70928;SHT31;58587;53.034;18.576;2022-08-23T07:38:35;21.43;83.52
70928;SHT31;58587;53.034;18.576;2022-08-23T07:41:02;21.49;83.47
70928;SHT31;58587;53.034;18.576;2022-08-23T07:43:28;21.50;83.41
70928;SHT31;58587;53.034;18.576;2022-08-23T07:45:55;21.59;83.43
70928;SHT31;58587;53.034;18.576;2022-08-23T07:48:20;21.63;83.49
70928;SHT31;58587;53.034;18.576;2022-08-23T07:50:58;21.64;83.18
70928;SHT31;58587;53.034;18.576;2022-08-23T07:53:24;21.66;83.21
70928;SHT31;58587;53.034;18.576;2022-08-23T07:55:50;21.70;83.07
70928;SHT31;58587;53.034;18.576;2022-08-23T07:58:16;21.73;82.90
70928;SHT31;58587;53.034;18.576;2022-08-23T08:00:42;21.77;82.87
70928;SHT31;58587;53.034;18.576;2022-08-23T08:03:08;21.80;83.04
70928;SHT31;58587;53.034;18.576;2022-08-23T08:05:34;21.79;82.71
70928;SHT31;58587;53.034;18.576;2022-08-23T08:08:01;21.83;82.72
70928;SHT31;58587;53.034;18.576;2022-08-23T08:10:27;21.89;82.81
70928;SHT31;58587;53.034;18.576;2022-08-23T08:12:53;21.90;82.86
70928;SHT31;58587;53.034;18.576;2022-08-23T08:15:19;21.90;82.52
70928;SHT31;58587;53.034;18.576;2022-08-23T08:17:48;21.90;82.46
70928;SHT31;58587;53.034;18.576;2022-08-23T08:20:15;21.94;82.17
70928;SHT31;58587;53.034;18.576;2022-08-23T08:22:41;22.00;82.10
70928;SHT31;58587;53.034;18.576;2022-08-23T08:25:08;22.05;82.27
70928;SHT31;58587;53.034;18.576;2022-08-23T08:27:34;22.15;82.28
70928;SHT31;58587;53.034;18.576;2022-08-23T08:29:59;22.24;81.94
70928;SHT31;58587;53.034;18.576;2022-08-23T08:32:24;22.37;81.71
70928;SHT31;58587;53.034;18.576;2022-08-23T08:34:50;22.49;82.08
70928;SHT31;58587;53.034;18.576;2022-08-23T08:37:15;22.65;81.74
70928;SHT31;58587;53.034;18.576;2022-08-23T08:39:41;22.78;81.07
70928;SHT31;58587;53.034;18.576;2022-08-23T08:44:44;23.03;79.57
70928;SHT31;58587;53.034;18.576;2022-08-23T08:52:32;23.26;79.06
70928;SHT31;58587;53.034;18.576;2022-08-23T08:55:06;23.31;78.15
70928;SHT31;58587;53.034;18.576;2022-08-23T08:57:44;23.39;78.73
70928;SHT31;58587;53.034;18.576;2022-08-23T09:00:13;23.47;78.41
70928;SHT31;58587;53.034;18.576;2022-08-23T09:02:40;23.51;77.58
70928;SHT31;58587;53.034;18.576;2022-08-23T09:05:10;23.60;78.10
70928;SHT31;58587;53.034;18.576;2022-08-23T09:07:57;23.81;78.26
70928;SHT31;58587;53.034;18.576;2022-08-23T09:10:39;23.91;77.12
70928;SHT31;58587;53.034;18.576;2022-08-23T09:18:41;24.31;76.35
70928;SHT31;58587;53.034;18.576;2022-08-23T09:21:08;24.41;76.01
70928;SHT31;58587;53.034;18.576;2022-08-23T09:23:45;24.47;75.58
70928;SHT31;58587;53.034;18.576;2022-08-23T09:26:23;24.55;75.24
70928;SHT31;58587;53.034;18.576;2022-08-23T09:28:52;24.63;75.33
70928;SHT31;58587;53.034;18.576;2022-08-23T09:34:02;24.86;75.18
70928;SHT31;58587;53.034;18.576;2022-08-23T09:36:32;24.99;75.57
70928;SHT31;58587;53.034;18.576;2022-08-23T09:39:01;24.99;73.60
70928;SHT31;58587;53.034;18.576;2022-08-23T09:41:34;25.10;74.55
70928;SHT31;58587;53.034;18.576;2022-08-23T09:44:02;25.24;74.98
70928;SHT31;58587;53.034;18.576;2022-08-23T09:46:30;25.28;73.56
70928;SHT31;58587;53.034;18.576;2022-08-23T09:48:57;25.46;73.96
70928;SHT31;58587;53.034;18.576;2022-08-23T09:51:36;25.53;72.04
70928;SHT31;58587;53.034;18.576;2022-08-23T09:54:12;25.56;72.13
70928;SHT31;58587;53.034;18.576;2022-08-23T09:56:43;25.58;72.66
70928;SHT31;58587;53.034;18.576;2022-08-23T10:01:55;25.60;71.80
70928;SHT31;58587;53.034;18.576;2022-08-23T10:04:29;25.64;72.02
70928;SHT31;58587;53.034;18.576;2022-08-23T10:06:55;25.71;72.65
70928;SHT31;58587;53.034;18.576;2022-08-23T10:09:30;25.74;72.21
70928;SHT31;58587;53.034;18.576;2022-08-23T10:11:57;25.92;72.52
70928;SHT31;58587;53.034;18.576;2022-08-23T10:14:24;26.15;71.52
70928;SHT31;58587;53.034;18.576;2022-08-23T10:16:59;26.42;71.79
70928;SHT31;58587;53.034;18.576;2022-08-23T10:19:39;26.57;70.70
70928;SHT31;58587;53.034;18.576;2022-08-23T10:22:19;26.75;69.96
70928;SHT31;58587;53.034;18.576;2022-08-23T10:30:16;26.84;69.23
70928;SHT31;58587;53.034;18.576;2022-08-23T10:35:28;26.94;67.87
70928;SHT31;58587;53.034;18.576;2022-08-23T10:37:58;27.00;68.07
70928;SHT31;58587;53.034;18.576;2022-08-23T10:40:41;27.06;67.65
70928;SHT31;58587;53.034;18.576;2022-08-23T10:45:58;27.11;67.31
70928;SHT31;58587;53.034;18.576;2022-08-23T10:48:27;27.10;67.08
70928;SHT31;58587;53.034;18.576;2022-08-23T10:51:01;27.13;66.23
70928;SHT31;58587;53.034;18.576;2022-08-23T10:55:59;27.30;66.97
70928;SHT31;58587;53.034;18.576;2022-08-23T10:58:39;27.44;66.66
70928;SHT31;58587;53.034;18.576;2022-08-23T11:01:05;27.51;66.78
70928;SHT31;58587;53.034;18.576;2022-08-23T11:04:04;27.55;65.41
70928;SHT31;58587;53.034;18.576;2022-08-23T11:14:25;27.55;65.76
70928;SHT31;58587;53.034;18.576;2022-08-23T11:16:56;27.64;66.46
70928;SHT31;58587;53.034;18.576;2022-08-23T11:19:45;27.85;66.18
70928;SHT31;58587;53.034;18.576;2022-08-23T11:22:16;27.91;63.94
70928;SHT31;58587;53.034;18.576;2022-08-23T11:24:55;28.12;64.67
70928;SHT31;58587;53.034;18.576;2022-08-23T11:29:55;28.49;64.58
70928;SHT31;58587;53.034;18.576;2022-08-23T11:32:22;28.70;63.38
70928;SHT31;58587;53.034;18.576;2022-08-23T11:35:25;28.90;62.11
70928;SHT31;58587;53.034;18.576;2022-08-23T11:37:59;29.08;62.24
70928;SHT31;58587;53.034;18.576;2022-08-23T11:40:41;29.25;60.20
70928;SHT31;58587;53.034;18.576;2022-08-23T11:43:21;29.30;60.16
70928;SHT31;58587;53.034;18.576;2022-08-23T11:45:47;29.00;58.92
70928;SHT31;58587;53.034;18.576;2022-08-23T11:48:38;28.90;60.18
70928;SHT31;58587;53.034;18.576;2022-08-23T11:56:30;28.67;61.47
70928;SHT31;58587;53.034;18.576;2022-08-23T11:59:52;28.57;61.94
70928;SHT31;58587;53.034;18.576;2022-08-23T12:18:36;27.74;64.41
70928;SHT31;58587;53.034;18.576;2022-08-23T12:21:04;27.72;64.55
70928;SHT31;58587;53.034;18.576;2022-08-23T12:23:31;27.66;64.30
70928;SHT31;58587;53.034;18.576;2022-08-23T12:26:13;27.43;65.04
70928;SHT31;58587;53.034;18.576;2022-08-23T12:28:48;27.31;65.38
70928;SHT31;58587;53.034;18.576;2022-08-23T12:34:02;27.15;67.34
70928;SHT31;58587;53.034;18.576;2022-08-23T12:42:06;26.93;66.31
70928;SHT31;58587;53.034;18.576;2022-08-23T12:44:33;26.82;68.07
70928;SHT31;58587;53.034;18.576;2022-08-23T12:47:18;26.62;68.86
70928;SHT31;58587;53.034;18.576;2022-08-23T12:52:39;26.39;70.90
70928;SHT31;58587;53.034;18.576;2022-08-23T12:55:18;26.32;71.82
70928;SHT31;58587;53.034;18.576;2022-08-23T12:57:51;26.21;72.07
70928;SHT31;58587;53.034;18.576;2022-08-23T13:02:56;26.08;73.56
70928;SHT31;58587;53.034;18.576;2022-08-23T13:05:42;26.02;74.87
70928;SHT31;58587;53.034;18.576;2022-08-23T13:08:16;25.78;76.40
70928;SHT31;58587;53.034;18.576;2022-08-23T13:10:44;25.50;76.29
70928;SHT31;58587;53.034;18.576;2022-08-23T13:13:13;25.37;78.58
70928;SHT31;58587;53.034;18.576;2022-08-23T13:16:00;25.00;78.61
70928;SHT31;58587;53.034;18.576;2022-08-23T13:23:49;24.85;80.86
70928;SHT31;58587;53.034;18.576;2022-08-23T13:26:32;24.85;80.90
70928;SHT31;58587;53.034;18.576;2022-08-23T13:32:02;24.75;81.73
70928;SHT31;58587;53.034;18.576;2022-08-23T13:34:40;24.76;82.13
70928;SHT31;58587;53.034;18.576;2022-08-23T13:37:25;24.76;81.53
70928;SHT31;58587;53.034;18.576;2022-08-23T13:40:04;24.68;81.10
70928;SHT31;58587;53.034;18.576;2022-08-23T13:42:43;24.62;81.53
70928;SHT31;58587;53.034;18.576;2022-08-23T13:45:23;24.59;81.10
70928;SHT31;58587;53.034;18.576;2022-08-23T13:47:54;24.51;80.27
70928;SHT31;58587;53.034;18.576;2022-08-23T13:50:32;24.41;80.82
70928;SHT31;58587;53.034;18.576;2022-08-23T13:52:58;24.36;81.50
70928;SHT31;58587;53.034;18.576;2022-08-23T13:55:25;24.29;81.52
70928;SHT31;58587;53.034;18.576;2022-08-23T13:57:50;24.20;81.96
70928;SHT31;58587;53.034;18.576;2022-08-23T14:00:16;24.14;81.98
70928;SHT31;58587;53.034;18.576;2022-08-23T14:02:42;24.11;82.08
70928;SHT31;58587;53.034;18.576;2022-08-23T14:05:08;24.01;82.79
70928;SHT31;58587;53.034;18.576;2022-08-23T14:07:34;23.90;82.75
70928;SHT31;58587;53.034;18.576;2022-08-23T14:10:00;23.78;83.33
70928;SHT31;58587;53.034;18.576;2022-08-23T14:12:30;23.74;84.09
70928;SHT31;58587;53.034;18.576;2022-08-23T14:14:58;23.66;84.47
70928;SHT31;58587;53.034;18.576;2022-08-23T14:17:24;23.66;84.75
70928;SHT31;58587;53.034;18.576;2022-08-23T14:19:49;23.54;84.79
70928;SHT31;58587;53.034;18.576;2022-08-23T14:22:15;23.56;85.11
70928;SHT31;58587;53.034;18.576;2022-08-23T14:24:42;23.59;85.27
70928;SHT31;58587;53.034;18.576;2022-08-23T14:27:08;23.50;84.94
70928;SHT31;58587;53.034;18.576;2022-08-23T14:29:34;23.47;85.32
70928;SHT31;58587;53.034;18.576;2022-08-23T14:31:59;23.42;85.47
70928;SHT31;58587;53.034;18.576;2022-08-23T14:34:27;23.39;85.80
70928;SHT31;58587;53.034;18.576;2022-08-23T14:36:53;23.36;85.88
70928;SHT31;58587;53.034;18.576;2022-08-23T14:39:19;23.34;86.49
70928;SHT31;58587;53.034;18.576;2022-08-23T14:41:45;23.31;86.49
70928;SHT31;58587;53.034;18.576;2022-08-23T14:44:11;23.36;86.38
70928;SHT31;58587;53.034;18.576;2022-08-23T14:46:38;23.34;86.57
70928;SHT31;58587;53.034;18.576;2022-08-23T14:49:04;23.33;86.44
70928;SHT31;58587;53.034;18.576;2022-08-23T14:51:32;23.27;85.91
70928;SHT31;58587;53.034;18.576;2022-08-23T14:54:00;23.22;86.37
70928;SHT31;58587;53.034;18.576;2022-08-23T14:56:27;23.22;86.15
70928;SHT31;58587;53.034;18.576;2022-08-23T14:58:53;23.20;86.68
70928;SHT31;58587;53.034;18.576;2022-08-23T15:01:19;23.16;86.70
70928;SHT31;58587;53.034;18.576;2022-08-23T15:03:45;23.13;87.01
70928;SHT31;58587;53.034;18.576;2022-08-23T15:06:12;23.09;86.82
70928;SHT31;58587;53.034;18.576;2022-08-23T15:08:38;23.10;87.12
70928;SHT31;58587;53.034;18.576;2022-08-23T15:11:03;23.06;86.85
70928;SHT31;58587;53.034;18.576;2022-08-23T15:13:31;22.98;86.67
70928;SHT31;58587;53.034;18.576;2022-08-23T15:15:57;22.91;85.36
70928;SHT31;58587;53.034;18.576;2022-08-23T15:18:23;22.88;85.60
70928;SHT31;58587;53.034;18.576;2022-08-23T15:20:48;22.85;85.38
70928;SHT31;58587;53.034;18.576;2022-08-23T15:23:14;22.82;85.49
70928;SHT31;58587;53.034;18.576;2022-08-23T15:25:41;22.76;85.56
70928;SHT31;58587;53.034;18.576;2022-08-23T15:28:10;22.68;86.42
70928;SHT31;58587;53.034;18.576;2022-08-23T15:30:36;22.65;85.63
70928;SHT31;58587;53.034;18.576;2022-08-23T15:33:02;22.59;86.38
70928;SHT31;58587;53.034;18.576;2022-08-23T15:35:28;22.56;86.47
70928;SHT31;58587;53.034;18.576;2022-08-23T15:37:57;22.52;86.10
70928;SHT31;58587;53.034;18.576;2022-08-23T15:40:23;22.48;86.06
70928;SHT31;58587;53.034;18.576;2022-08-23T15:42:48;22.44;85.93
70928;SHT31;58587;53.034;18.576;2022-08-23T15:45:14;22.41;83.87
70928;SHT31;58587;53.034;18.576;2022-08-23T15:47:49;22.35;83.95
70928;SHT31;58587;53.034;18.576;2022-08-23T15:50:20;22.27;84.71
70928;SHT31;58587;53.034;18.576;2022-08-23T15:52:47;22.20;84.13
70928;SHT31;58587;53.034;18.576;2022-08-23T15:55:13;22.11;84.75
70928;SHT31;58587;53.034;18.576;2022-08-23T15:57:47;22.00;84.51
70928;SHT31;58587;53.034;18.576;2022-08-23T16:00:14;21.97;85.67
70928;SHT31;58587;53.034;18.576;2022-08-23T16:02:41;21.91;84.69
70928;SHT31;58587;53.034;18.576;2022-08-23T16:05:07;21.81;84.88
70928;SHT31;58587;53.034;18.576;2022-08-23T16:07:33;21.77;84.99
70928;SHT31;58587;53.034;18.576;2022-08-23T16:09:59;21.74;85.63
70928;SHT31;58587;53.034;18.576;2022-08-23T16:12:27;21.66;85.48
70928;SHT31;58587;53.034;18.576;2022-08-23T16:14:52;21.63;85.92
70928;SHT31;58587;53.034;18.576;2022-08-23T16:17:19;21.64;85.33
70928;SHT31;58587;53.034;18.576;2022-08-23T16:19:45;21.57;85.57
70928;SHT31;58587;53.034;18.576;2022-08-23T16:22:11;21.53;86.00
70928;SHT31;58587;53.034;18.576;2022-08-23T16:24:37;21.49;86.43
70928;SHT31;58587;53.034;18.576;2022-08-23T16:27:04;21.46;86.63
70928;SHT31;58587;53.034;18.576;2022-08-23T16:29:30;21.45;86.69
70928;SHT31;58587;53.034;18.576;2022-08-23T16:31:57;21.42;86.74
70928;SHT31;58587;53.034;18.576;2022-08-23T16:34:23;21.43;87.01
70928;SHT31;58587;53.034;18.576;2022-08-23T16:36:52;21.40;86.63
70928;SHT31;58587;53.034;18.576;2022-08-23T16:39:19;21.40;86.66
70928;SHT31;58587;53.034;18.576;2022-08-23T16:41:45;21.40;86.34
70928;SHT31;58587;53.034;18.576;2022-08-23T16:44:10;21.36;86.52
70928;SHT31;58587;53.034;18.576;2022-08-23T16:46:36;21.32;87.04
70928;SHT31;58587;53.034;18.576;2022-08-23T16:49:03;21.23;86.76
70928;SHT31;58587;53.034;18.576;2022-08-23T16:51:29;21.25;86.69
70928;SHT31;58587;53.034;18.576;2022-08-23T16:53:54;21.19;86.85
70928;SHT31;58587;53.034;18.576;2022-08-23T16:56:20;21.15;87.39
70928;SHT31;58587;53.034;18.576;2022-08-23T16:58:45;21.16;87.16
70928;SHT31;58587;53.034;18.576;2022-08-23T17:01:12;21.18;87.09
70928;SHT31;58587;53.034;18.576;2022-08-23T17:03:39;21.12;87.25
70928;SHT31;58587;53.034;18.576;2022-08-23T17:06:05;21.08;87.37
70928;SHT31;58587;53.034;18.576;2022-08-23T17:08:31;21.00;87.29
70928;SHT31;58587;53.034;18.576;2022-08-23T17:10:56;21.00;87.64
70928;SHT31;58587;53.034;18.576;2022-08-23T17:13:22;20.98;87.56
70928;SHT31;58587;53.034;18.576;2022-08-23T17:15:48;20.96;87.19
70928;SHT31;58587;53.034;18.576;2022-08-23T17:18:13;20.88;86.90
70928;SHT31;58587;53.034;18.576;2022-08-23T17:20:39;20.85;87.41
70928;SHT31;58587;53.034;18.576;2022-08-23T17:23:06;20.84;87.90
70928;SHT31;58587;53.034;18.576;2022-08-23T17:25:32;20.88;87.55
70928;SHT31;58587;53.034;18.576;2022-08-23T17:27:58;20.88;87.91
70928;SHT31;58587;53.034;18.576;2022-08-23T17:30:25;20.81;87.88
70928;SHT31;58587;53.034;18.576;2022-08-23T17:32:51;20.79;88.11
70928;SHT31;58587;53.034;18.576;2022-08-23T17:35:20;20.77;88.02
70928;SHT31;58587;53.034;18.576;2022-08-23T17:37:46;20.71;88.34
70928;SHT31;58587;53.034;18.576;2022-08-23T17:40:16;20.71;88.39
70928;SHT31;58587;53.034;18.576;2022-08-23T17:42:41;20.69;88.68
70928;SHT31;58587;53.034;18.576;2022-08-23T17:45:08;20.72;88.44
70928;SHT31;58587;53.034;18.576;2022-08-23T17:47:33;20.65;88.57
70928;SHT31;58587;53.034;18.576;2022-08-23T17:49:59;20.65;88.69
70928;SHT31;58587;53.034;18.576;2022-08-23T17:52:25;20.61;88.88
70928;SHT31;58587;53.034;18.576;2022-08-23T17:54:52;20.64;88.29
70928;SHT31;58587;53.034;18.576;2022-08-23T17:57:18;20.57;88.79
70928;SHT31;58587;53.034;18.576;2022-08-23T17:59:44;20.52;88.92
70928;SHT31;58587;53.034;18.576;2022-08-23T18:02:09;20.49;89.14
70928;SHT31;58587;53.034;18.576;2022-08-23T18:04:35;20.49;89.04
70928;SHT31;58587;53.034;18.576;2022-08-23T18:07:00;20.44;88.98
70928;SHT31;58587;53.034;18.576;2022-08-23T18:09:26;20.43;88.89
70928;SHT31;58587;53.034;18.576;2022-08-23T18:11:51;20.40;88.71
70928;SHT31;58587;53.034;18.576;2022-08-23T18:14:17;20.33;88.84
70928;SHT31;58587;53.034;18.576;2022-08-23T18:16:42;20.30;89.05
70928;SHT31;58587;53.034;18.576;2022-08-23T18:19:08;20.27;89.31
70928;SHT31;58587;53.034;18.576;2022-08-23T18:21:35;20.21;89.41
70928;SHT31;58587;53.034;18.576;2022-08-23T18:24:02;20.18;89.57
70928;SHT31;58587;53.034;18.576;2022-08-23T18:26:27;20.20;89.79
70928;SHT31;58587;53.034;18.576;2022-08-23T18:29:12;20.18;89.94
70928;SHT31;58587;53.034;18.576;2022-08-23T18:31:41;20.17;89.89
70928;SHT31;58587;53.034;18.576;2022-08-23T18:34:07;20.12;89.74
70928;SHT31;58587;53.034;18.576;2022-08-23T18:36:33;20.17;89.65
70928;SHT31;58587;53.034;18.576;2022-08-23T18:38:58;20.14;89.85
70928;SHT31;58587;53.034;18.576;2022-08-23T18:41:24;20.14;89.93
70928;SHT31;58587;53.034;18.576;2022-08-23T18:43:49;20.10;90.16
70928;SHT31;58587;53.034;18.576;2022-08-23T18:46:15;20.10;90.09
70928;SHT31;58587;53.034;18.576;2022-08-23T18:48:40;20.13;89.84
70928;SHT31;58587;53.034;18.576;2022-08-23T18:51:06;20.06;89.90
70928;SHT31;58587;53.034;18.576;2022-08-23T18:53:35;20.01;89.74
70928;SHT31;58587;53.034;18.576;2022-08-23T18:56:00;20.00;90.34
70928;SHT31;58587;53.034;18.576;2022-08-23T18:58:26;19.98;90.44
70928;SHT31;58587;53.034;18.576;2022-08-23T19:00:51;20.01;90.38
70928;SHT31;58587;53.034;18.576;2022-08-23T19:03:17;20.03;90.44
70928;SHT31;58587;53.034;18.576;2022-08-23T19:05:44;20.10;90.52
70928;SHT31;58587;53.034;18.576;2022-08-23T19:08:11;20.06;90.25
70928;SHT31;58587;53.034;18.576;2022-08-23T19:10:37;20.06;90.52
70928;SHT31;58587;53.034;18.576;2022-08-23T19:13:03;20.06;90.59
70928;SHT31;58587;53.034;18.576;2022-08-23T19:15:29;20.09;90.53
70928;SHT31;58587;53.034;18.576;2022-08-23T19:17:54;20.07;90.48
70928;SHT31;58587;53.034;18.576;2022-08-23T19:20:23;20.07;90.16
70928;SHT31;58587;53.034;18.576;2022-08-23T19:22:48;20.03;90.34
70928;SHT31;58587;53.034;18.576;2022-08-23T19:25:14;20.04;90.46
70928;SHT31;58587;53.034;18.576;2022-08-23T19:27:40;20.06;90.22
70928;SHT31;58587;53.034;18.576;2022-08-23T19:30:07;20.04;90.36
70928;SHT31;58587;53.034;18.576;2022-08-23T19:32:33;20.03;90.39
70928;SHT31;58587;53.034;18.576;2022-08-23T19:34:59;20.03;90.89
70928;SHT31;58587;53.034;18.576;2022-08-23T19:37:25;20.01;90.66
70928;SHT31;58587;53.034;18.576;2022-08-23T19:39:50;19.96;90.57
70928;SHT31;58587;53.034;18.576;2022-08-23T19:42:16;20.00;90.33
70928;SHT31;58587;53.034;18.576;2022-08-23T19:44:43;19.94;90.64
70928;SHT31;58587;53.034;18.576;2022-08-23T19:47:08;19.97;90.82
70928;SHT31;58587;53.034;18.576;2022-08-23T19:49:34;19.89;91.34
70928;SHT31;58587;53.034;18.576;2022-08-23T19:52:00;19.94;91.41
70928;SHT31;58587;53.034;18.576;2022-08-23T19:54:26;19.94;91.46
70928;SHT31;58587;53.034;18.576;2022-08-23T19:56:55;19.92;91.31
70928;SHT31;58587;53.034;18.576;2022-08-23T20:01:52;19.94;91.81
70928;SHT31;58587;53.034;18.576;2022-08-23T20:04:20;19.96;91.33
70928;SHT31;58587;53.034;18.576;2022-08-23T20:06:46;19.97;91.49
70928;SHT31;58587;53.034;18.576;2022-08-23T20:09:13;19.97;91.27
70928;SHT31;58587;53.034;18.576;2022-08-23T20:11:39;19.98;91.11
70928;SHT31;58587;53.034;18.576;2022-08-23T20:14:06;19.97;91.27
70928;SHT31;58587;53.034;18.576;2022-08-23T20:16:34;19.97;91.15
70928;SHT31;58587;53.034;18.576;2022-08-23T20:19:00;20.00;90.82
70928;SHT31;58587;53.034;18.576;2022-08-23T20:21:26;19.98;91.13
70928;SHT31;58587;53.034;18.576;2022-08-23T20:23:52;19.96;91.35
70928;SHT31;58587;53.034;18.576;2022-08-23T20:26:39;19.97;91.05
70928;SHT31;58587;53.034;18.576;2022-08-23T20:29:07;19.96;91.41
70928;SHT31;58587;53.034;18.576;2022-08-23T20:31:36;19.96;91.42
70928;SHT31;58587;53.034;18.576;2022-08-23T20:34:04;19.98;91.35
70928;SHT31;58587;53.034;18.576;2022-08-23T20:36:29;19.96;91.45
70928;SHT31;58587;53.034;18.576;2022-08-23T20:38:56;19.94;91.66
70928;SHT31;58587;53.034;18.576;2022-08-23T20:41:25;19.92;91.40
70928;SHT31;58587;53.034;18.576;2022-08-23T20:43:51;19.92;91.68
70928;SHT31;58587;53.034;18.576;2022-08-23T20:46:16;19.89;91.48
70928;SHT31;58587;53.034;18.576;2022-08-23T20:48:42;19.87;91.16
70928;SHT31;58587;53.034;18.576;2022-08-23T20:51:07;19.89;91.53
70928;SHT31;58587;53.034;18.576;2022-08-23T20:53:33;19.84;91.67
70928;SHT31;58587;53.034;18.576;2022-08-23T20:56:00;19.86;91.69
70928;SHT31;58587;53.034;18.576;2022-08-23T20:58:26;19.82;91.53
70928;SHT31;58587;53.034;18.576;2022-08-23T21:00:52;19.80;91.88
70928;SHT31;58587;53.034;18.576;2022-08-23T21:03:18;19.79;91.70
70928;SHT31;58587;53.034;18.576;2022-08-23T21:05:44;19.79;91.36
70928;SHT31;58587;53.034;18.576;2022-08-23T21:08:10;19.77;91.38
70928;SHT31;58587;53.034;18.576;2022-08-23T21:10:35;19.79;91.44
70928;SHT31;58587;53.034;18.576;2022-08-23T21:13:01;19.76;91.55
70928;SHT31;58587;53.034;18.576;2022-08-23T21:15:27;19.74;91.66
70928;SHT31;58587;53.034;18.576;2022-08-23T21:17:53;19.77;91.42
70928;SHT31;58587;53.034;18.576;2022-08-23T21:20:18;19.73;91.33
70928;SHT31;58587;53.034;18.576;2022-08-23T21:22:44;19.74;91.49
70928;SHT31;58587;53.034;18.576;2022-08-23T21:25:09;19.74;91.40
70928;SHT31;58587;53.034;18.576;2022-08-23T21:27:35;19.72;91.39
70928;SHT31;58587;53.034;18.576;2022-08-23T21:30:01;19.73;91.49
70928;SHT31;58587;53.034;18.576;2022-08-23T21:32:27;19.70;91.56
70928;SHT31;58587;53.034;18.576;2022-08-23T21:34:53;19.67;91.60
70928;SHT31;58587;53.034;18.576;2022-08-23T21:37:18;19.72;91.70
70928;SHT31;58587;53.034;18.576;2022-08-23T21:39:44;19.70;91.60
70928;SHT31;58587;53.034;18.576;2022-08-23T21:42:09;19.70;91.88
70928;SHT31;58587;53.034;18.576;2022-08-23T21:44:35;19.66;91.70
70928;SHT31;58587;53.034;18.576;2022-08-23T21:47:00;19.66;91.86
70928;SHT31;58587;53.034;18.576;2022-08-23T21:49:26;19.69;91.89
70928;SHT31;58587;53.034;18.576;2022-08-23T21:51:51;19.66;91.65
70928;SHT31;58587;53.034;18.576;2022-08-23T21:54:20;19.67;92.12
70928;SHT31;58587;53.034;18.576;2022-08-23T21:56:45;19.66;92.13
70928;SHT31;58587;53.034;18.576;2022-08-23T21:59:14;19.67;92.02
70928;SHT31;58587;53.034;18.576;2022-08-23T22:01:40;19.69;92.21
70928;SHT31;58587;53.034;18.576;2022-08-23T22:04:07;19.69;92.14
70928;SHT31;58587;53.034;18.576;2022-08-23T22:06:34;19.72;91.72
70928;SHT31;58587;53.034;18.576;2022-08-23T22:09:00;19.70;92.20
70928;SHT31;58587;53.034;18.576;2022-08-23T22:11:26;19.70;91.96
70928;SHT31;58587;53.034;18.576;2022-08-23T22:13:52;19.66;92.13
70928;SHT31;58587;53.034;18.576;2022-08-23T22:16:19;19.67;92.05
70928;SHT31;58587;53.034;18.576;2022-08-23T22:18:44;19.63;92.14
70928;SHT31;58587;53.034;18.576;2022-08-23T22:21:10;19.67;92.05
70928;SHT31;58587;53.034;18.576;2022-08-23T22:23:36;19.65;91.89
70928;SHT31;58587;53.034;18.576;2022-08-23T22:26:04;19.69;91.77
70928;SHT31;58587;53.034;18.576;2022-08-23T22:28:31;19.63;91.88
70928;SHT31;58587;53.034;18.576;2022-08-23T22:31:01;19.65;91.87
70928;SHT31;58587;53.034;18.576;2022-08-23T22:33:27;19.62;91.90
70928;SHT31;58587;53.034;18.576;2022-08-23T22:35:52;19.59;91.95
70928;SHT31;58587;53.034;18.576;2022-08-23T22:38:18;19.61;91.68
70928;SHT31;58587;53.034;18.576;2022-08-23T22:40:51;19.61;91.76
70928;SHT31;58587;53.034;18.576;2022-08-23T22:43:17;19.62;92.02
70928;SHT31;58587;53.034;18.576;2022-08-23T22:45:53;19.59;92.00
70928;SHT31;58587;53.034;18.576;2022-08-23T22:48:20;19.56;92.24
70928;SHT31;58587;53.034;18.576;2022-08-23T22:50:46;19.59;92.25
70928;SHT31;58587;53.034;18.576;2022-08-23T22:53:11;19.62;92.12
70928;SHT31;58587;53.034;18.576;2022-08-23T22:55:37;19.59;92.10
70928;SHT31;58587;53.034;18.576;2022-08-23T22:58:04;19.61;92.66
70928;SHT31;58587;53.034;18.576;2022-08-23T23:00:30;19.58;92.40
70928;SHT31;58587;53.034;18.576;2022-08-23T23:02:55;19.61;92.40
70928;SHT31;58587;53.034;18.576;2022-08-23T23:05:20;19.59;92.37
70928;SHT31;58587;53.034;18.576;2022-08-23T23:07:46;19.61;92.83
70928;SHT31;58587;53.034;18.576;2022-08-23T23:10:30;19.62;92.71
70928;SHT31;58587;53.034;18.576;2022-08-23T23:12:55;19.63;92.76
70928;SHT31;58587;53.034;18.576;2022-08-23T23:15:20;19.63;92.80
